createdAt,value
2024-02-02T00:01:03.937Z,99773.47
2024-02-02T00:03:32.047Z,99790.41
2024-02-02T00:06:00.125Z,99807.41
2024-02-02T00:08:28.106Z,99819.25
2024-02-02T00:10:57.204Z,99827.72
2024-02-02T00:13:26.011Z,99845.53
2024-02-02T00:15:55.496Z,99858.22
2024-02-02T00:18:23.636Z,99872.66
2024-02-02T00:20:53.878Z,99881.13
2024-02-02T00:23:21.900Z,99892.16
2024-02-02T00:25:49.788Z,99906.56
2024-02-02T00:28:17.946Z,99911.63
2024-02-02T00:30:45.860Z,99930.34
2024-02-02T00:33:15.304Z,99932.84
2024-02-02T00:35:43.294Z,99937.94
2024-02-02T00:38:11.208Z,99956.63
2024-02-02T00:40:39.164Z,99970.19
2024-02-02T00:43:07.174Z,99983.75
2024-02-02T00:45:35.128Z,99990.53
2024-02-02T00:48:03.962Z,99993.06
2024-02-02T00:50:34.337Z,99998.16
2024-02-02T00:53:02.254Z,99999.88
2024-02-02T00:55:30.163Z,100010.03
2024-02-02T00:57:58.139Z,100025.34
2024-02-02T01:00:26.145Z,100027.88
2024-02-02T01:02:54.261Z,100039.75
2024-02-02T01:05:22.143Z,100036.34
2024-02-02T01:07:51.468Z,100048.25
2024-02-02T01:10:19.707Z,100049.09
2024-02-02T01:12:48.096Z,100055.88
2024-02-02T01:15:17.693Z,100050.81
2024-02-02T01:17:46.929Z,100055.06
2024-02-02T01:20:15.781Z,100048.25
2024-02-02T01:22:43.986Z,100044.00
2024-02-02T01:25:15.505Z,100039.75
2024-02-02T01:27:43.759Z,100041.44
2024-02-02T01:30:13.331Z,100038.91
2024-02-02T01:32:41.953Z,100027.03
2024-02-02T01:35:10.027Z,100030.44
2024-02-02T01:37:37.910Z,100039.78
2024-02-02T01:40:07.064Z,100026.19
2024-02-02T01:42:36.437Z,100021.94
2024-02-02T01:45:04.849Z,100020.25
2024-02-02T01:47:32.862Z,100005.81
2024-02-02T01:50:00.883Z,99999.91
2024-02-02T01:52:29.194Z,99988.84
2024-02-02T01:54:57.730Z,99986.28
2024-02-02T01:57:26.004Z,99992.25
2024-02-02T01:59:55.589Z,99985.47
2024-02-02T02:02:23.622Z,99984.63
2024-02-02T02:04:51.614Z,99977.81
2024-02-02T02:07:19.568Z,99977.84
2024-02-02T02:09:47.784Z,99986.31
2024-02-02T02:12:15.870Z,99981.22
2024-02-02T02:14:44.140Z,99984.63
2024-02-02T02:17:13.529Z,99985.47
2024-02-02T02:19:42.196Z,99987.16
2024-02-02T02:22:11.494Z,99996.50
2024-02-02T02:24:39.551Z,99999.91
2024-02-02T02:27:07.806Z,100005.00
2024-02-02T02:29:35.884Z,100007.53
2024-02-02T02:32:03.937Z,100010.09
2024-02-02T02:34:32.639Z,100010.09
2024-02-02T02:37:00.763Z,100004.13
2024-02-02T02:39:31.252Z,100001.59
2024-02-02T02:41:59.270Z,100007.56
2024-02-02T02:44:27.886Z,100010.09
2024-02-02T02:46:55.919Z,100002.44
2024-02-02T02:49:24.080Z,100003.31
2024-02-02T02:51:52.036Z,100010.09
2024-02-02T02:54:20.032Z,99997.34
2024-02-02T02:56:49.378Z,99998.22
2024-02-02T02:59:17.814Z,99994.81
2024-02-02T03:01:45.823Z,99989.69
2024-02-02T03:04:14.015Z,99994.81
2024-02-02T03:06:42.082Z,99991.44
2024-02-02T03:09:12.979Z,99997.34
2024-02-02T03:11:41.265Z,99992.25
2024-02-02T03:14:10.755Z,99993.97
2024-02-02T03:16:38.648Z,99993.97
2024-02-02T03:19:06.910Z,99995.66
2024-02-02T03:21:35.856Z,99996.50
2024-02-02T03:24:04.051Z,100002.44
2024-02-02T03:26:32.150Z,99993.13
2024-02-02T03:29:00.071Z,99987.19
2024-02-02T03:31:29.432Z,99988.03
2024-02-02T03:33:58.813Z,99991.44
2024-02-02T03:36:27.038Z,99992.28
2024-02-02T03:38:55.167Z,99999.03
2024-02-02T03:41:23.631Z,99996.50
2024-02-02T03:43:52.915Z,100005.03
2024-02-02T03:46:20.952Z,100002.44
2024-02-02T03:48:51.871Z,99999.03
2024-02-02T03:51:19.979Z,100010.97
2024-02-02T03:53:47.957Z,99998.22
2024-02-02T03:56:16.010Z,100001.59
2024-02-02T03:58:43.951Z,100004.16
2024-02-02T04:01:11.956Z,99991.41
2024-02-02T04:03:40.060Z,99992.28
2024-02-02T04:06:09.761Z,99987.19
2024-02-02T04:08:37.748Z,99993.13
2024-02-02T04:11:06.130Z,99993.97
2024-02-02T04:13:34.066Z,99985.47
2024-02-02T04:16:02.004Z,99984.66
2024-02-02T04:18:30.093Z,99988.88
2024-02-02T04:20:58.270Z,99983.78
2024-02-02T04:23:27.848Z,99991.44
2024-02-02T04:25:55.882Z,99998.22
2024-02-02T04:28:23.951Z,99990.59
2024-02-02T04:30:52.076Z,99991.44
2024-02-02T04:33:20.242Z,99997.38
2024-02-02T04:35:48.411Z,99995.66
2024-02-02T04:38:18.542Z,99992.28
2024-02-02T04:40:48.009Z,99999.91
2024-02-02T04:43:16.227Z,99996.53
2024-02-02T04:45:44.685Z,100000.75
2024-02-02T04:48:12.778Z,99997.34
2024-02-02T04:50:41.343Z,99995.66
2024-02-02T04:53:09.901Z,100000.75
2024-02-02T04:55:37.868Z,100004.13
2024-02-02T04:58:07.353Z,100009.25
2024-02-02T05:00:36.636Z,100013.50
2024-02-02T05:03:05.114Z,100012.66
2024-02-02T05:05:33.908Z,100016.03
2024-02-02T05:08:01.977Z,100024.53
2024-02-02T05:10:29.989Z,100026.22
2024-02-02T05:12:57.847Z,100016.88
2024-02-02T05:15:27.198Z,100011.78
2024-02-02T05:17:55.330Z,100021.13
2024-02-02T05:20:23.360Z,100028.78
2024-02-02T05:22:51.321Z,100032.16
2024-02-02T05:25:19.234Z,100028.75
2024-02-02T05:27:47.161Z,100040.66
2024-02-02T05:30:15.890Z,100041.50
2024-02-02T05:32:45.385Z,100049.16
2024-02-02T05:35:13.456Z,100046.59
2024-02-02T05:37:41.440Z,100051.72
2024-02-02T05:40:10.658Z,100064.41
2024-02-02T05:42:38.779Z,100057.63
2024-02-02T05:45:07.989Z,100067.81
2024-02-02T05:47:35.930Z,100069.50
2024-02-02T05:50:05.860Z,100069.50
2024-02-02T05:52:33.955Z,100066.97
2024-02-02T05:55:01.879Z,100069.50
2024-02-02T05:57:29.892Z,100071.19
2024-02-02T05:59:57.937Z,100074.59
2024-02-02T06:02:26.043Z,100075.47
2024-02-02T06:04:54.007Z,100078.84
2024-02-02T06:07:23.353Z,100086.47
2024-02-02T06:09:51.309Z,100086.47
2024-02-02T06:12:19.278Z,100087.31
2024-02-02T06:14:47.269Z,100091.56
2024-02-02T06:17:15.181Z,100087.31
2024-02-02T06:19:43.238Z,100090.72
2024-02-02T06:22:11.266Z,100100.06
2024-02-02T06:24:40.639Z,100112.81
2024-02-02T06:27:08.649Z,100109.41
2024-02-02T06:29:36.664Z,100121.28
2024-02-02T06:32:04.763Z,100133.16
2024-02-02T06:34:32.806Z,100136.59
2024-02-02T06:37:00.947Z,100142.50
2024-02-02T06:39:28.937Z,100146.75
2024-02-02T06:41:58.283Z,100152.69
2024-02-02T06:44:26.322Z,100152.69
2024-02-02T06:46:54.446Z,100148.47
2024-02-02T06:49:22.571Z,100149.31
2024-02-02T06:51:50.521Z,100143.38
2024-02-02T06:54:18.600Z,100148.47
2024-02-02T06:56:47.775Z,100138.28
2024-02-02T06:59:17.309Z,100123.81
2024-02-02T07:01:45.518Z,100117.06
2024-02-02T07:04:15.708Z,100111.09
2024-02-02T07:06:44.827Z,100121.31
2024-02-02T07:09:27.854Z,100112.78
2024-02-02T07:11:58.248Z,100112.81
2024-02-02T07:15:00.889Z,100116.22
2024-02-02T07:17:41.108Z,100101.75
2024-02-02T07:20:12.318Z,100103.47
2024-02-02T07:22:41.331Z,100099.22
2024-02-02T07:25:10.849Z,100098.38
2024-02-02T07:27:55.811Z,100092.44
2024-02-02T07:30:52.601Z,100099.22
2024-02-02T07:33:24.911Z,100097.53
2024-02-02T07:35:53.724Z,100094.97
2024-02-02T07:38:43.547Z,100106.00
2024-02-02T07:41:14.246Z,100101.78
2024-02-02T07:43:42.504Z,100111.97
2024-02-02T07:46:14.498Z,100117.06
2024-02-02T07:48:44.676Z,100125.53
2024-02-02T07:51:13.372Z,100137.41
2024-02-02T07:53:41.522Z,100148.47
2024-02-02T07:56:10.494Z,100157.78
2024-02-02T07:58:38.709Z,100171.41
2024-02-02T08:01:08.143Z,100193.47
2024-02-02T08:03:38.053Z,100207.94
2024-02-02T08:06:07.113Z,100215.56
2024-02-02T08:08:37.173Z,100221.50
2024-02-02T08:11:05.618Z,100237.66
2024-02-02T08:13:34.075Z,100248.69
2024-02-02T08:16:02.141Z,100252.09
2024-02-02T08:18:30.984Z,100252.09
2024-02-02T08:21:02.040Z,100253.78
2024-02-02T08:23:30.125Z,100259.72
2024-02-02T08:25:58.100Z,100258.03
2024-02-02T08:28:26.098Z,100270.78
2024-02-02T08:30:57.289Z,100284.34
2024-02-02T08:33:25.394Z,100290.34
2024-02-02T08:35:53.578Z,100305.63
2024-02-02T08:38:22.858Z,100316.66
2024-02-02T08:40:50.992Z,100333.69
2024-02-02T08:43:22.048Z,100351.53
2024-02-02T08:46:10.281Z,100360.84
2024-02-02T08:48:40.548Z,100369.34
2024-02-02T08:51:54.574Z,100385.53
2024-02-02T08:54:36.358Z,100398.28
2024-02-02T08:57:37.153Z,100401.69
2024-02-02T09:00:27.296Z,100411.03
2024-02-02T09:03:10.550Z,100416.13
2024-02-02T09:05:56.232Z,100426.34
2024-02-02T09:08:35.201Z,100435.69
2024-02-02T09:11:21.440Z,100442.50
2024-02-02T09:13:49.993Z,100462.06
2024-02-02T09:16:20.108Z,100461.19
2024-02-02T09:18:56.189Z,100470.56
2024-02-02T09:21:29.222Z,100485.88
2024-02-02T09:23:57.555Z,100496.09
2024-02-02T09:26:39.707Z,100519.91
2024-02-02T09:29:10.691Z,100536.06
2024-02-02T09:31:39.460Z,100552.25
2024-02-02T09:34:10.461Z,100570.09
2024-02-02T09:36:40.986Z,100587.16
2024-02-02T09:39:30.901Z,100610.97
2024-02-02T09:42:30.942Z,100617.81
2024-02-02T09:45:01.246Z,100622.91
2024-02-02T09:47:53.368Z,100629.69
2024-02-02T09:50:38.078Z,100634.81
2024-02-02T09:53:25.807Z,100645.03
2024-02-02T09:56:00.777Z,100661.19
2024-02-02T09:58:38.435Z,100661.19
2024-02-02T10:01:16.563Z,100673.16
2024-02-02T10:03:55.876Z,100687.63
2024-02-02T10:06:35.125Z,100695.25
2024-02-02T10:09:13.234Z,100708.91
2024-02-02T10:12:04.422Z,100731.03
2024-02-02T10:15:04.361Z,100740.44
2024-02-02T10:17:45.837Z,100754.91
2024-02-02T10:20:23.110Z,100776.22
2024-02-02T10:23:27.558Z,100797.53
2024-02-02T10:26:34.961Z,100826.50
2024-02-02T10:29:14.495Z,100842.66
2024-02-02T10:32:09.911Z,100868.25
2024-02-02T10:34:54.378Z,100894.69
2024-02-02T10:37:34.883Z,100905.78
2024-02-02T10:40:29.142Z,100913.47
2024-02-02T10:43:17.034Z,100926.25
2024-02-02T10:45:57.766Z,100943.31
2024-02-02T10:48:55.727Z,100968.03
2024-02-02T10:51:32.620Z,100997.91
2024-02-02T10:54:12.368Z,101042.28
2024-02-02T10:56:55.035Z,101091.81
2024-02-02T10:59:34.341Z,101131.91
2024-02-02T11:02:14.715Z,101173.78
2024-02-02T11:04:58.022Z,101197.72
2024-02-02T11:07:29.595Z,101231.88
2024-02-02T11:09:59.789Z,101248.09
2024-02-02T11:12:40.428Z,101271.19
2024-02-02T11:15:27.700Z,101278.00
2024-02-02T11:18:07.308Z,101293.41
2024-02-02T11:20:49.080Z,101314.75
2024-02-02T11:23:23.898Z,101321.59
2024-02-02T11:25:57.467Z,101313.91
2024-02-02T11:28:30.973Z,101309.63
2024-02-02T11:31:09.187Z,101313.88
2024-02-02T11:33:54.946Z,101316.44
2024-02-02T11:36:38.906Z,101342.09
2024-02-02T11:39:24.980Z,101344.69
2024-02-02T11:41:54.084Z,101347.25
2024-02-02T11:44:22.673Z,101359.22
2024-02-02T11:46:53.124Z,101372.03
2024-02-02T11:49:25.470Z,101380.59
2024-02-02T11:52:02.869Z,101384.88
2024-02-02T11:54:37.718Z,101394.25
2024-02-02T11:57:08.539Z,101412.22
2024-02-02T11:59:40.976Z,101433.63
2024-02-02T12:02:22.756Z,101439.59
2024-02-02T12:04:58.684Z,101446.44
2024-02-02T12:07:36.701Z,101443.88
2024-02-02T12:10:06.651Z,101457.56
2024-02-02T12:12:37.941Z,101470.38
2024-02-02T12:15:10.926Z,101481.50
2024-02-02T12:17:39.773Z,101477.22
2024-02-02T12:20:09.442Z,101485.81
2024-02-02T12:22:40.926Z,101486.66
2024-02-02T12:25:11.677Z,101490.06
2024-02-02T12:27:39.923Z,101497.78
2024-02-02T12:30:10.402Z,101520.88
2024-02-02T12:32:39.687Z,101528.56
2024-02-02T12:35:08.060Z,101551.69
2024-02-02T12:37:48.903Z,101579.09
2024-02-02T12:40:20.596Z,101607.34
2024-02-02T12:42:49.293Z,101645.84
2024-02-02T12:45:17.833Z,101686.13
2024-02-02T12:47:46.216Z,101714.41
2024-02-02T12:50:16.555Z,101738.41
2024-02-02T12:52:45.398Z,101776.94
2024-02-02T12:55:15.227Z,101809.50
2024-02-02T12:57:43.573Z,101829.19
2024-02-02T13:00:15.659Z,101869.53
2024-02-02T13:02:45.058Z,101901.25
2024-02-02T13:05:13.961Z,101927.81
2024-02-02T13:07:43.059Z,101943.25
2024-02-02T13:10:12.980Z,101951.00
2024-02-02T13:12:48.104Z,101966.44
2024-02-02T13:15:19.344Z,101966.44
2024-02-02T13:18:01.839Z,101987.91
2024-02-02T13:20:33.331Z,101991.34
2024-02-02T13:23:11.211Z,101981.06
2024-02-02T13:25:41.924Z,101968.16
2024-02-02T13:28:17.856Z,101985.34
2024-02-02T13:30:54.535Z,102005.94
2024-02-02T13:33:24.168Z,102016.22
2024-02-02T13:56:52.384Z,102064.31
2024-02-02T13:59:20.417Z,102069.47
2024-02-02T14:01:48.677Z,102077.19
2024-02-02T14:04:25.648Z,102076.31
2024-02-02T14:06:53.736Z,102072.88
2024-02-02T14:09:23.288Z,102061.75
2024-02-02T14:12:00.795Z,102058.31
2024-02-02T14:14:29.412Z,102042.84
2024-02-02T14:17:04.323Z,102022.28
2024-02-02T14:19:32.742Z,102008.53
2024-02-02T14:22:07.380Z,102000.81
2024-02-02T14:24:36.104Z,101982.81
2024-02-02T14:27:08.093Z,101975.06
2024-02-02T14:29:43.961Z,101960.50
2024-02-02T14:32:12.508Z,101959.63
2024-02-02T14:34:40.587Z,101939.03
2024-02-02T14:37:11.023Z,101941.56
2024-02-02T14:39:39.009Z,101935.56
2024-02-02T14:42:08.733Z,101921.00
2024-02-02T14:44:37.451Z,101918.44
2024-02-02T14:47:07.198Z,101919.28
2024-02-02T14:49:35.647Z,101902.97
2024-02-02T14:52:03.745Z,101897.84
2024-02-02T14:54:32.089Z,101885.84
2024-02-02T14:57:00.810Z,101878.09
2024-02-02T14:59:33.078Z,101872.97
2024-02-02T15:02:01.030Z,101869.53
2024-02-02T15:04:28.955Z,101858.41
2024-02-02T15:06:57.210Z,101854.97
2024-02-02T15:09:27.068Z,101837.81
2024-02-02T15:12:01.306Z,101824.97
2024-02-02T15:14:35.669Z,101814.66
2024-02-02T15:17:04.682Z,101808.66
2024-02-02T15:19:32.797Z,101795.81
2024-02-02T15:22:01.127Z,101782.94
2024-02-02T15:24:29.086Z,101755.53
2024-02-02T15:26:57.050Z,101763.25
2024-02-02T15:29:25.179Z,101745.25
2024-02-02T15:31:54.429Z,101735.84
2024-02-02T15:34:24.608Z,101723.84
2024-02-02T15:36:52.733Z,101713.56
2024-02-02T15:39:27.579Z,101709.28
2024-02-02T15:42:02.731Z,101688.69
2024-02-02T15:44:30.613Z,101681.84
2024-02-02T15:47:00.846Z,101660.47
2024-02-02T15:49:28.944Z,101647.59
2024-02-02T15:51:57.061Z,101636.47
2024-02-02T15:54:25.034Z,101615.91
2024-02-02T15:56:52.955Z,101594.53
2024-02-02T15:59:20.882Z,101577.38
2024-02-02T16:01:48.993Z,101570.53
2024-02-02T16:04:18.359Z,101546.56
2024-02-02T16:06:46.437Z,101540.56
2024-02-02T16:09:14.640Z,101542.28
2024-02-02T16:11:42.671Z,101526.00
2024-02-02T16:14:10.595Z,101507.19
2024-02-02T16:16:38.881Z,101479.81
2024-02-02T16:19:06.867Z,101460.13
2024-02-02T16:21:36.414Z,101457.56
2024-02-02T16:24:04.832Z,101456.72
2024-02-02T16:26:32.842Z,101445.59
2024-02-02T16:29:00.724Z,101445.59
2024-02-02T16:31:28.691Z,101431.91
2024-02-02T16:33:56.822Z,101425.91
2024-02-02T16:36:24.898Z,101423.34
2024-02-02T16:38:54.181Z,101414.81
2024-02-02T16:41:22.038Z,101407.97
2024-02-02T16:43:49.965Z,101400.25
2024-02-02T16:46:17.853Z,101390.00
2024-02-02T16:48:46.770Z,101384.88
2024-02-02T16:51:18.135Z,101373.75
2024-02-02T16:53:46.506Z,101360.06
2024-02-02T16:56:19.213Z,101351.53
2024-02-02T16:58:47.371Z,101331.00
2024-02-02T17:01:15.286Z,101313.06
2024-02-02T17:03:44.066Z,101304.50
2024-02-02T17:06:12.490Z,101291.66
2024-02-02T17:08:40.543Z,101287.41
2024-02-02T17:11:09.178Z,101263.47
2024-02-02T17:13:38.497Z,101257.50
2024-02-02T17:16:07.324Z,101247.25
2024-02-02T17:18:35.482Z,101257.50
2024-02-02T17:21:03.991Z,101256.66
2024-02-02T17:23:32.177Z,101256.66
2024-02-02T17:26:00.039Z,101231.00
2024-02-02T17:28:27.934Z,101213.03
2024-02-02T17:30:57.477Z,101189.13
2024-02-02T17:33:25.481Z,101178.03
2024-02-02T17:35:53.475Z,101160.94
2024-02-02T17:38:21.885Z,101137.03
2024-02-02T17:40:50.545Z,101113.09
2024-02-02T17:43:18.639Z,101097.75
2024-02-02T17:45:46.613Z,101084.06
2024-02-02T17:48:16.159Z,101096.91
2024-02-02T17:50:45.006Z,101122.50
2024-02-02T17:53:12.952Z,101148.97
2024-02-02T17:55:40.867Z,101177.16
2024-02-02T17:58:09.725Z,101191.69
2024-02-02T18:00:37.615Z,101256.63
2024-02-02T18:03:05.575Z,101313.91
2024-02-02T18:05:34.863Z,101361.78
2024-02-02T18:08:02.937Z,101405.38
2024-02-02T18:10:30.960Z,101442.16
2024-02-02T18:13:00.155Z,101489.22
2024-02-02T18:15:28.161Z,101511.50
2024-02-02T18:17:56.333Z,101534.56
2024-02-02T18:20:24.250Z,101550.84
2024-02-02T18:22:54.050Z,101560.28
2024-02-02T18:25:24.025Z,101592.78
2024-02-02T18:27:53.355Z,101621.03
2024-02-02T18:30:26.796Z,101633.06
2024-02-02T18:32:54.859Z,101648.44
2024-02-02T18:35:23.181Z,101663.88
2024-02-02T18:37:54.128Z,101667.31
2024-02-02T18:40:26.346Z,101665.59
2024-02-02T18:42:54.477Z,101668.16
2024-02-02T18:45:22.481Z,101665.59
2024-02-02T18:47:50.749Z,101665.59
2024-02-02T18:50:19.355Z,101672.44
2024-02-02T18:52:48.670Z,101677.56
2024-02-02T18:55:16.884Z,101678.44
2024-02-02T18:57:46.194Z,101701.56
2024-02-02T19:00:15.708Z,101710.97
2024-02-02T19:02:43.820Z,101706.72
2024-02-02T19:05:12.258Z,101705.84
2024-02-02T19:07:40.296Z,101705.00
2024-02-02T19:10:08.598Z,101711.00
2024-02-02T19:12:36.558Z,101711.84
2024-02-02T19:15:07.735Z,101707.59
2024-02-02T19:17:35.932Z,101712.72
2024-02-02T19:20:04.002Z,101719.56
2024-02-02T19:22:31.897Z,101717.00
2024-02-02T19:25:00.357Z,101723.00
2024-02-02T19:27:28.299Z,101717.00
2024-02-02T19:29:56.200Z,101723.84
2024-02-02T19:32:27.818Z,101723.84
2024-02-02T19:34:55.750Z,101733.28
2024-02-02T19:37:24.007Z,101736.69
2024-02-02T19:39:52.050Z,101742.72
2024-02-02T19:42:19.989Z,101758.13
2024-02-02T19:44:47.900Z,101753.84
2024-02-02T19:47:15.780Z,101750.41
2024-02-02T19:49:45.118Z,101757.28
2024-02-02T19:52:13.070Z,101762.41
2024-02-02T19:54:42.865Z,101764.97
2024-02-02T19:57:10.841Z,101763.25
2024-02-02T19:59:38.718Z,101769.25
2024-02-02T20:02:07.889Z,101770.16
2024-02-02T20:04:35.862Z,101767.56
2024-02-02T20:07:05.353Z,101766.69
2024-02-02T20:09:33.267Z,101770.16
2024-02-02T20:12:02.000Z,101773.56
2024-02-02T20:14:30.196Z,101767.56
2024-02-02T20:16:58.096Z,101770.97
2024-02-02T20:19:26.343Z,101764.13
2024-02-02T20:21:54.407Z,101765.84
2024-02-02T20:24:23.854Z,101767.53
2024-02-02T20:26:51.828Z,101766.69
2024-02-02T20:29:19.781Z,101763.25
2024-02-02T20:31:51.427Z,101757.28
2024-02-02T20:34:19.673Z,101761.56
2024-02-02T20:36:47.808Z,101757.28
2024-02-02T20:39:15.773Z,101760.69
2024-02-02T20:41:45.205Z,101756.41
2024-02-02T20:44:13.193Z,101752.13
2024-02-02T20:46:41.095Z,101737.56
2024-02-02T20:49:09.123Z,101738.41
2024-02-02T20:51:41.793Z,101739.25
2024-02-02T20:54:09.572Z,101740.97
2024-02-02T20:56:42.747Z,101729.00
2024-02-02T20:59:12.027Z,101727.28
2024-02-02T21:01:40.072Z,101727.28
2024-02-02T21:04:08.226Z,101733.28
2024-02-02T21:06:42.948Z,101725.56
2024-02-02T21:09:11.316Z,101718.72
2024-02-02T21:11:39.265Z,101714.41
2024-02-02T21:14:07.178Z,101713.56
2024-02-02T21:16:36.507Z,101716.13
2024-02-02T21:19:05.846Z,101715.28
2024-02-02T21:21:33.958Z,101719.59
2024-02-02T21:24:01.900Z,101724.72
2024-02-02T21:26:30.592Z,101721.28
2024-02-02T21:28:58.695Z,101721.25
2024-02-02T21:31:26.666Z,101716.97
2024-02-02T21:33:56.620Z,101718.69
2024-02-02T21:36:24.647Z,101716.13
2024-02-02T21:38:52.530Z,101718.69
2024-02-02T21:41:25.540Z,101714.41
2024-02-02T21:43:54.217Z,101716.97
2024-02-02T21:46:22.956Z,101709.28
2024-02-02T21:48:51.190Z,101702.44
2024-02-02T21:51:20.575Z,101711.84
2024-02-02T21:53:48.478Z,101714.41
2024-02-02T21:56:16.488Z,101724.69
2024-02-02T21:58:44.356Z,101722.13
2024-02-02T22:01:12.428Z,101722.16
2024-02-02T22:03:40.415Z,101724.69
2024-02-02T22:06:09.246Z,101728.13
2024-02-02T22:08:38.582Z,101726.41
2024-02-02T22:11:06.677Z,101730.72
2024-02-02T22:13:36.835Z,101742.69
2024-02-02T22:16:11.005Z,101749.53
2024-02-02T22:18:39.082Z,101740.97
2024-02-02T22:21:07.251Z,101757.25
2024-02-02T22:23:36.068Z,101759.81
2024-02-02T22:26:05.888Z,101772.69
2024-02-02T22:28:33.922Z,101776.13
2024-02-02T22:31:05.969Z,101788.97
2024-02-02T22:33:34.349Z,101796.69
2024-02-02T22:36:02.383Z,101806.97
2024-02-02T22:38:30.488Z,101817.25
2024-02-02T22:40:59.124Z,101812.97
2024-02-02T22:43:29.612Z,101818.09
2024-02-02T22:45:57.544Z,101820.69
2024-02-02T22:48:25.619Z,101818.97
2024-02-02T22:50:56.010Z,101823.25
2024-02-02T22:53:23.972Z,101814.69
2024-02-02T22:55:51.953Z,101822.41
2024-02-02T22:58:19.852Z,101832.66
2024-02-02T23:00:49.583Z,101834.41
2024-02-02T23:06:36.267Z,101840.41
2024-02-02T23:09:04.431Z,101840.41
2024-02-02T23:11:32.491Z,101850.69
2024-02-02T23:14:00.379Z,101856.69
2024-02-02T23:16:28.372Z,101857.53
2024-02-02T23:18:56.748Z,101860.97
2024-02-02T23:21:24.791Z,101867.00
2024-02-02T23:23:54.103Z,101875.56
2024-02-02T23:26:22.021Z,101879.00
2024-02-02T23:28:49.907Z,101882.41
2024-02-02T23:31:18.107Z,101879.00
2024-02-02T23:33:46.061Z,101885.00
2024-02-02T23:36:14.197Z,101890.97
2024-02-02T23:38:44.512Z,101890.13
2024-02-02T23:41:16.772Z,101891.84
2024-02-02T23:43:44.820Z,101882.41
2024-02-02T23:46:12.769Z,101871.28
2024-02-02T23:48:40.787Z,101866.09
2024-02-02T23:51:08.823Z,101860.97
2024-02-02T23:53:36.776Z,101855.84
2024-02-02T23:56:05.042Z,101858.41
2024-02-02T23:58:34.326Z,101857.53
